sensor_id;sensor_type;location;lat;lon;timestamp;P1;durP1;ratioP1;P2;durP2;ratioP2
18808;SDS011;9532;54.322;10.116;2022-10-16T00:01:07;3.83;;;2.90;;
18808;SDS011;9532;54.322;10.116;2022-10-16T00:03:36;3.97;;;3.00;;
18808;SDS011;9532;54.322;10.116;2022-10-16T00:06:04;5.93;;;3.03;;
18808;SDS011;9532;54.322;10.116;2022-10-16T00:08:32;4.00;;;2.80;;
18808;SDS011;9532;54.322;10.116;2022-10-16T00:11:02;4.53;;;3.20;;
18808;SDS011;9532;54.322;10.116;2022-10-16T00:13:31;4.77;;;3.03;;
18808;SDS011;9532;54.322;10.116;2022-10-16T00:16:00;4.37;;;2.90;;
18808;SDS011;9532;54.322;10.116;2022-10-16T00:18:28;5.07;;;3.13;;
18808;SDS011;9532;54.322;10.116;2022-10-16T00:20:56;4.33;;;3.10;;
18808;SDS011;9532;54.322;10.116;2022-10-16T00:23:29;3.40;;;2.70;;
18808;SDS011;9532;54.322;10.116;2022-10-16T00:25:56;4.10;;;2.93;;
18808;SDS011;9532;54.322;10.116;2022-10-16T00:28:25;4.97;;;3.07;;
18808;SDS011;9532;54.322;10.116;2022-10-16T00:30:53;3.63;;;2.70;;
18808;SDS011;9532;54.322;10.116;2022-10-16T00:33:20;4.37;;;3.10;;
18808;SDS011;9532;54.322;10.116;2022-10-16T00:35:48;3.60;;;2.70;;
18808;SDS011;9532;54.322;10.116;2022-10-16T00:38:16;4.07;;;2.70;;
18808;SDS011;9532;54.322;10.116;2022-10-16T00:40:43;3.87;;;2.70;;
18808;SDS011;9532;54.322;10.116;2022-10-16T00:43:13;3.90;;;2.90;;
18808;SDS011;9532;54.322;10.116;2022-10-16T00:46:00;4.93;;;2.53;;
18808;SDS011;9532;54.322;10.116;2022-10-16T00:48:28;4.80;;;3.00;;
18808;SDS011;9532;54.322;10.116;2022-10-16T00:50:56;3.63;;;2.87;;
18808;SDS011;9532;54.322;10.116;2022-10-16T00:53:24;3.60;;;2.70;;
18808;SDS011;9532;54.322;10.116;2022-10-16T00:55:52;4.77;;;2.80;;
18808;SDS011;9532;54.322;10.116;2022-10-16T00:58:19;3.40;;;2.70;;
18808;SDS011;9532;54.322;10.116;2022-10-16T01:00:47;3.87;;;2.53;;
18808;SDS011;9532;54.322;10.116;2022-10-16T01:03:29;3.43;;;2.30;;
18808;SDS011;9532;54.322;10.116;2022-10-16T01:06:00;3.60;;;2.60;;
18808;SDS011;9532;54.322;10.116;2022-10-16T01:08:37;3.43;;;2.57;;
18808;SDS011;9532;54.322;10.116;2022-10-16T01:11:11;3.07;;;2.47;;
18808;SDS011;9532;54.322;10.116;2022-10-16T01:13:46;3.30;;;2.50;;
18808;SDS011;9532;54.322;10.116;2022-10-16T01:16:20;4.20;;;2.63;;
18808;SDS011;9532;54.322;10.116;2022-10-16T01:18:56;2.93;;;2.50;;
18808;SDS011;9532;54.322;10.116;2022-10-16T01:21:29;3.93;;;2.60;;
18808;SDS011;9532;54.322;10.116;2022-10-16T01:24:03;4.07;;;2.47;;
18808;SDS011;9532;54.322;10.116;2022-10-16T01:26:42;3.97;;;2.73;;
18808;SDS011;9532;54.322;10.116;2022-10-16T01:29:20;3.47;;;2.57;;
18808;SDS011;9532;54.322;10.116;2022-10-16T01:31:53;2.77;;;2.17;;
18808;SDS011;9532;54.322;10.116;2022-10-16T01:34:28;2.67;;;2.23;;
18808;SDS011;9532;54.322;10.116;2022-10-16T01:37:00;3.53;;;2.43;;
18808;SDS011;9532;54.322;10.116;2022-10-16T01:39:32;3.03;;;2.30;;
18808;SDS011;9532;54.322;10.116;2022-10-16T01:42:04;2.90;;;2.10;;
18808;SDS011;9532;54.322;10.116;2022-10-16T01:44:36;2.90;;;2.20;;
18808;SDS011;9532;54.322;10.116;2022-10-16T01:47:05;2.97;;;2.30;;
18808;SDS011;9532;54.322;10.116;2022-10-16T01:49:34;3.77;;;2.57;;
18808;SDS011;9532;54.322;10.116;2022-10-16T01:52:05;2.87;;;2.00;;
18808;SDS011;9532;54.322;10.116;2022-10-16T01:54:37;2.87;;;2.23;;
18808;SDS011;9532;54.322;10.116;2022-10-16T01:57:06;2.87;;;2.20;;
18808;SDS011;9532;54.322;10.116;2022-10-16T01:59:37;2.93;;;2.03;;
18808;SDS011;9532;54.322;10.116;2022-10-16T02:02:07;3.60;;;1.90;;
18808;SDS011;9532;54.322;10.116;2022-10-16T02:04:37;2.90;;;2.07;;
18808;SDS011;9532;54.322;10.116;2022-10-16T02:07:08;3.33;;;2.10;;
18808;SDS011;9532;54.322;10.116;2022-10-16T02:09:36;3.30;;;2.20;;
18808;SDS011;9532;54.322;10.116;2022-10-16T02:12:06;3.03;;;2.10;;
18808;SDS011;9532;54.322;10.116;2022-10-16T02:14:41;3.50;;;2.37;;
18808;SDS011;9532;54.322;10.116;2022-10-16T02:17:11;3.40;;;2.40;;
18808;SDS011;9532;54.322;10.116;2022-10-16T02:19:39;2.67;;;1.90;;
18808;SDS011;9532;54.322;10.116;2022-10-16T02:22:08;3.00;;;2.10;;
18808;SDS011;9532;54.322;10.116;2022-10-16T02:24:43;3.63;;;2.33;;
18808;SDS011;9532;54.322;10.116;2022-10-16T02:27:17;2.80;;;2.23;;
18808;SDS011;9532;54.322;10.116;2022-10-16T02:29:52;2.70;;;2.20;;
18808;SDS011;9532;54.322;10.116;2022-10-16T02:32:24;2.83;;;2.20;;
18808;SDS011;9532;54.322;10.116;2022-10-16T02:34:56;2.40;;;2.10;;
18808;SDS011;9532;54.322;10.116;2022-10-16T02:37:25;2.77;;;1.90;;
18808;SDS011;9532;54.322;10.116;2022-10-16T02:39:54;2.30;;;2.00;;
18808;SDS011;9532;54.322;10.116;2022-10-16T02:42:26;2.40;;;2.00;;
18808;SDS011;9532;54.322;10.116;2022-10-16T02:44:56;2.70;;;2.07;;
18808;SDS011;9532;54.322;10.116;2022-10-16T02:47:23;2.63;;;2.00;;
18808;SDS011;9532;54.322;10.116;2022-10-16T02:49:50;2.70;;;1.87;;
18808;SDS011;9532;54.322;10.116;2022-10-16T02:52:17;2.83;;;1.70;;
18808;SDS011;9532;54.322;10.116;2022-10-16T02:54:44;3.03;;;2.20;;
18808;SDS011;9532;54.322;10.116;2022-10-16T02:57:11;2.97;;;2.00;;
18808;SDS011;9532;54.322;10.116;2022-10-16T02:59:39;2.03;;;1.57;;
18808;SDS011;9532;54.322;10.116;2022-10-16T03:02:08;2.20;;;1.70;;
18808;SDS011;9532;54.322;10.116;2022-10-16T03:04:34;2.43;;;2.10;;
18808;SDS011;9532;54.322;10.116;2022-10-16T03:07:02;2.13;;;1.80;;
18808;SDS011;9532;54.322;10.116;2022-10-16T03:09:29;2.33;;;1.80;;
18808;SDS011;9532;54.322;10.116;2022-10-16T03:11:56;2.70;;;1.90;;
18808;SDS011;9532;54.322;10.116;2022-10-16T03:14:23;2.20;;;1.80;;
18808;SDS011;9532;54.322;10.116;2022-10-16T03:16:50;2.90;;;1.87;;
18808;SDS011;9532;54.322;10.116;2022-10-16T03:19:18;2.00;;;1.60;;
18808;SDS011;9532;54.322;10.116;2022-10-16T03:21:45;2.40;;;1.60;;
18808;SDS011;9532;54.322;10.116;2022-10-16T03:24:13;2.33;;;1.87;;
18808;SDS011;9532;54.322;10.116;2022-10-16T03:26:39;2.10;;;1.67;;
18808;SDS011;9532;54.322;10.116;2022-10-16T03:29:07;2.63;;;1.80;;
18808;SDS011;9532;54.322;10.116;2022-10-16T03:31:34;2.30;;;1.90;;
18808;SDS011;9532;54.322;10.116;2022-10-16T03:34:01;2.87;;;1.80;;
18808;SDS011;9532;54.322;10.116;2022-10-16T03:36:30;3.30;;;1.73;;
18808;SDS011;9532;54.322;10.116;2022-10-16T03:38:57;2.83;;;1.80;;
18808;SDS011;9532;54.322;10.116;2022-10-16T03:41:24;2.73;;;1.73;;
18808;SDS011;9532;54.322;10.116;2022-10-16T03:43:51;2.80;;;1.80;;
18808;SDS011;9532;54.322;10.116;2022-10-16T03:46:18;2.83;;;1.90;;
18808;SDS011;9532;54.322;10.116;2022-10-16T03:48:45;2.10;;;1.80;;
18808;SDS011;9532;54.322;10.116;2022-10-16T03:51:12;2.53;;;1.90;;
18808;SDS011;9532;54.322;10.116;2022-10-16T03:53:40;2.43;;;1.70;;
18808;SDS011;9532;54.322;10.116;2022-10-16T03:56:07;1.97;;;1.47;;
18808;SDS011;9532;54.322;10.116;2022-10-16T03:58:34;2.00;;;1.67;;
18808;SDS011;9532;54.322;10.116;2022-10-16T04:01:01;2.07;;;1.43;;
18808;SDS011;9532;54.322;10.116;2022-10-16T04:03:28;3.20;;;1.83;;
18808;SDS011;9532;54.322;10.116;2022-10-16T04:05:55;2.00;;;1.27;;
18808;SDS011;9532;54.322;10.116;2022-10-16T04:08:23;2.40;;;1.63;;
18808;SDS011;9532;54.322;10.116;2022-10-16T04:10:51;1.87;;;1.67;;
18808;SDS011;9532;54.322;10.116;2022-10-16T04:13:18;2.50;;;1.60;;
18808;SDS011;9532;54.322;10.116;2022-10-16T04:15:45;1.97;;;1.47;;
18808;SDS011;9532;54.322;10.116;2022-10-16T04:18:12;4.30;;;1.70;;
18808;SDS011;9532;54.322;10.116;2022-10-16T04:20:39;2.43;;;1.70;;
18808;SDS011;9532;54.322;10.116;2022-10-16T04:23:07;2.00;;;1.80;;
18808;SDS011;9532;54.322;10.116;2022-10-16T04:25:34;1.97;;;1.50;;
18808;SDS011;9532;54.322;10.116;2022-10-16T04:28:02;2.97;;;1.70;;
18808;SDS011;9532;54.322;10.116;2022-10-16T04:30:29;2.33;;;1.67;;
18808;SDS011;9532;54.322;10.116;2022-10-16T04:32:58;1.90;;;1.43;;
18808;SDS011;9532;54.322;10.116;2022-10-16T04:35:25;2.73;;;1.50;;
18808;SDS011;9532;54.322;10.116;2022-10-16T04:37:52;2.83;;;1.60;;
18808;SDS011;9532;54.322;10.116;2022-10-16T04:40:19;2.33;;;1.50;;
18808;SDS011;9532;54.322;10.116;2022-10-16T04:42:46;3.10;;;1.40;;
18808;SDS011;9532;54.322;10.116;2022-10-16T04:45:15;2.00;;;1.70;;
18808;SDS011;9532;54.322;10.116;2022-10-16T04:47:42;2.67;;;1.60;;
18808;SDS011;9532;54.322;10.116;2022-10-16T04:50:09;1.93;;;1.47;;
18808;SDS011;9532;54.322;10.116;2022-10-16T04:52:36;2.20;;;1.60;;
18808;SDS011;9532;54.322;10.116;2022-10-16T04:55:03;1.80;;;1.53;;
18808;SDS011;9532;54.322;10.116;2022-10-16T04:57:31;1.67;;;1.47;;
18808;SDS011;9532;54.322;10.116;2022-10-16T04:59:59;1.57;;;1.30;;
18808;SDS011;9532;54.322;10.116;2022-10-16T05:02:27;1.27;;;1.10;;
18808;SDS011;9532;54.322;10.116;2022-10-16T05:04:54;1.70;;;1.23;;
18808;SDS011;9532;54.322;10.116;2022-10-16T05:07:21;1.57;;;1.20;;
18808;SDS011;9532;54.322;10.116;2022-10-16T05:09:48;1.90;;;1.37;;
18808;SDS011;9532;54.322;10.116;2022-10-16T05:12:15;1.47;;;1.20;;
18808;SDS011;9532;54.322;10.116;2022-10-16T05:14:43;1.90;;;1.50;;
18808;SDS011;9532;54.322;10.116;2022-10-16T05:17:10;2.30;;;1.40;;
18808;SDS011;9532;54.322;10.116;2022-10-16T05:19:38;2.07;;;1.37;;
18808;SDS011;9532;54.322;10.116;2022-10-16T05:22:05;1.70;;;1.30;;
18808;SDS011;9532;54.322;10.116;2022-10-16T05:24:32;1.70;;;1.30;;
18808;SDS011;9532;54.322;10.116;2022-10-16T05:26:59;1.70;;;1.33;;
18808;SDS011;9532;54.322;10.116;2022-10-16T05:29:26;2.00;;;1.10;;
18808;SDS011;9532;54.322;10.116;2022-10-16T05:31:54;1.87;;;1.20;;
18808;SDS011;9532;54.322;10.116;2022-10-16T05:34:21;1.90;;;1.50;;
18808;SDS011;9532;54.322;10.116;2022-10-16T05:36:49;1.30;;;1.20;;
18808;SDS011;9532;54.322;10.116;2022-10-16T05:39:17;2.07;;;1.40;;
18808;SDS011;9532;54.322;10.116;2022-10-16T05:41:44;1.07;;;0.97;;
18808;SDS011;9532;54.322;10.116;2022-10-16T05:44:11;1.57;;;1.17;;
18808;SDS011;9532;54.322;10.116;2022-10-16T05:46:38;1.80;;;1.40;;
18808;SDS011;9532;54.322;10.116;2022-10-16T05:49:05;2.20;;;1.60;;
18808;SDS011;9532;54.322;10.116;2022-10-16T05:51:31;2.23;;;1.40;;
18808;SDS011;9532;54.322;10.116;2022-10-16T05:54:00;1.40;;;1.17;;
18808;SDS011;9532;54.322;10.116;2022-10-16T05:56:27;3.43;;;1.30;;
18808;SDS011;9532;54.322;10.116;2022-10-16T05:58:54;1.53;;;1.00;;
18808;SDS011;9532;54.322;10.116;2022-10-16T06:01:21;2.07;;;1.10;;
18808;SDS011;9532;54.322;10.116;2022-10-16T06:03:50;1.50;;;1.30;;
18808;SDS011;9532;54.322;10.116;2022-10-16T06:06:18;1.43;;;1.20;;
18808;SDS011;9532;54.322;10.116;2022-10-16T06:08:47;1.53;;;1.30;;
18808;SDS011;9532;54.322;10.116;2022-10-16T06:11:17;3.03;;;1.37;;
18808;SDS011;9532;54.322;10.116;2022-10-16T06:13:48;1.47;;;1.33;;
18808;SDS011;9532;54.322;10.116;2022-10-16T06:16:15;1.73;;;1.20;;
18808;SDS011;9532;54.322;10.116;2022-10-16T06:18:43;1.50;;;1.17;;
18808;SDS011;9532;54.322;10.116;2022-10-16T06:21:12;2.00;;;1.30;;
18808;SDS011;9532;54.322;10.116;2022-10-16T06:23:42;1.77;;;1.10;;
18808;SDS011;9532;54.322;10.116;2022-10-16T06:26:11;1.13;;;1.00;;
18808;SDS011;9532;54.322;10.116;2022-10-16T06:28:41;1.50;;;1.10;;
18808;SDS011;9532;54.322;10.116;2022-10-16T06:31:09;1.57;;;1.10;;
18808;SDS011;9532;54.322;10.116;2022-10-16T06:33:37;1.50;;;1.17;;
18808;SDS011;9532;54.322;10.116;2022-10-16T06:36:06;1.70;;;1.13;;
18808;SDS011;9532;54.322;10.116;2022-10-16T06:38:35;1.70;;;0.90;;
18808;SDS011;9532;54.322;10.116;2022-10-16T06:41:02;1.50;;;1.10;;
18808;SDS011;9532;54.322;10.116;2022-10-16T06:43:31;1.80;;;1.23;;
18808;SDS011;9532;54.322;10.116;2022-10-16T06:46:02;1.67;;;1.43;;
18808;SDS011;9532;54.322;10.116;2022-10-16T06:48:30;1.63;;;1.10;;
18808;SDS011;9532;54.322;10.116;2022-10-16T06:50:58;3.30;;;1.30;;
18808;SDS011;9532;54.322;10.116;2022-10-16T06:53:27;1.57;;;1.10;;
18808;SDS011;9532;54.322;10.116;2022-10-16T06:55:56;1.30;;;1.03;;
18808;SDS011;9532;54.322;10.116;2022-10-16T06:58:23;1.33;;;1.10;;
18808;SDS011;9532;54.322;10.116;2022-10-16T07:00:54;2.03;;;1.20;;
18808;SDS011;9532;54.322;10.116;2022-10-16T07:03:23;2.10;;;1.20;;
18808;SDS011;9532;54.322;10.116;2022-10-16T07:05:50;1.13;;;0.97;;
18808;SDS011;9532;54.322;10.116;2022-10-16T07:08:17;1.57;;;0.83;;
18808;SDS011;9532;54.322;10.116;2022-10-16T07:10:44;2.00;;;1.20;;
18808;SDS011;9532;54.322;10.116;2022-10-16T07:13:11;2.17;;;1.10;;
18808;SDS011;9532;54.322;10.116;2022-10-16T07:15:39;1.30;;;1.20;;
18808;SDS011;9532;54.322;10.116;2022-10-16T07:18:06;1.20;;;1.07;;
18808;SDS011;9532;54.322;10.116;2022-10-16T07:20:35;2.20;;;0.87;;
18808;SDS011;9532;54.322;10.116;2022-10-16T07:23:02;1.77;;;1.00;;
18808;SDS011;9532;54.322;10.116;2022-10-16T07:25:29;1.47;;;0.90;;
18808;SDS011;9532;54.322;10.116;2022-10-16T07:27:56;1.20;;;0.83;;
18808;SDS011;9532;54.322;10.116;2022-10-16T07:30:23;1.33;;;0.97;;
18808;SDS011;9532;54.322;10.116;2022-10-16T07:32:50;1.03;;;0.80;;
18808;SDS011;9532;54.322;10.116;2022-10-16T07:35:17;1.73;;;1.10;;
18808;SDS011;9532;54.322;10.116;2022-10-16T07:37:46;1.30;;;1.10;;
18808;SDS011;9532;54.322;10.116;2022-10-16T07:40:13;1.27;;;1.00;;
18808;SDS011;9532;54.322;10.116;2022-10-16T07:42:40;1.93;;;1.20;;
18808;SDS011;9532;54.322;10.116;2022-10-16T07:45:07;1.90;;;1.30;;
18808;SDS011;9532;54.322;10.116;2022-10-16T07:47:35;1.87;;;1.17;;
18808;SDS011;9532;54.322;10.116;2022-10-16T07:50:02;1.50;;;1.10;;
18808;SDS011;9532;54.322;10.116;2022-10-16T07:52:29;1.80;;;1.47;;
18808;SDS011;9532;54.322;10.116;2022-10-16T07:54:58;2.93;;;1.77;;
18808;SDS011;9532;54.322;10.116;2022-10-16T07:57:25;2.40;;;1.67;;
18808;SDS011;9532;54.322;10.116;2022-10-16T07:59:52;4.07;;;2.60;;
18808;SDS011;9532;54.322;10.116;2022-10-16T08:02:19;3.37;;;2.20;;
18808;SDS011;9532;54.322;10.116;2022-10-16T08:04:46;4.83;;;2.90;;
18808;SDS011;9532;54.322;10.116;2022-10-16T08:07:15;5.93;;;3.50;;
18808;SDS011;9532;54.322;10.116;2022-10-16T08:09:42;5.17;;;3.10;;
18808;SDS011;9532;54.322;10.116;2022-10-16T08:12:11;7.03;;;3.53;;
18808;SDS011;9532;54.322;10.116;2022-10-16T08:14:38;8.27;;;4.33;;
18808;SDS011;9532;54.322;10.116;2022-10-16T08:17:04;8.00;;;4.40;;
18808;SDS011;9532;54.322;10.116;2022-10-16T08:19:31;9.20;;;5.03;;
18808;SDS011;9532;54.322;10.116;2022-10-16T08:21:59;9.73;;;5.73;;
18808;SDS011;9532;54.322;10.116;2022-10-16T08:24:27;10.00;;;5.50;;
18808;SDS011;9532;54.322;10.116;2022-10-16T08:26:55;11.33;;;5.87;;
18808;SDS011;9532;54.322;10.116;2022-10-16T08:29:24;11.00;;;6.37;;
18808;SDS011;9532;54.322;10.116;2022-10-16T08:31:51;12.37;;;7.37;;
18808;SDS011;9532;54.322;10.116;2022-10-16T08:34:18;14.60;;;7.63;;
18808;SDS011;9532;54.322;10.116;2022-10-16T08:36:45;14.90;;;8.40;;
18808;SDS011;9532;54.322;10.116;2022-10-16T08:39:12;16.60;;;9.23;;
18808;SDS011;9532;54.322;10.116;2022-10-16T08:41:51;15.23;;;8.87;;
18808;SDS011;9532;54.322;10.116;2022-10-16T08:44:39;16.23;;;9.73;;
18808;SDS011;9532;54.322;10.116;2022-10-16T08:47:19;17.10;;;10.00;;
18808;SDS011;9532;54.322;10.116;2022-10-16T08:49:53;17.70;;;10.10;;
18808;SDS011;9532;54.322;10.116;2022-10-16T08:52:24;15.33;;;9.90;;
18808;SDS011;9532;54.322;10.116;2022-10-16T08:54:55;19.70;;;11.43;;
18808;SDS011;9532;54.322;10.116;2022-10-16T08:57:24;20.60;;;11.50;;
18808;SDS011;9532;54.322;10.116;2022-10-16T08:59:54;18.13;;;11.10;;
18808;SDS011;9532;54.322;10.116;2022-10-16T09:02:29;21.57;;;12.70;;
18808;SDS011;9532;54.322;10.116;2022-10-16T09:05:02;23.30;;;13.30;;
18808;SDS011;9532;54.322;10.116;2022-10-16T09:07:49;24.83;;;14.17;;
18808;SDS011;9532;54.322;10.116;2022-10-16T09:10:29;23.03;;;13.60;;
18808;SDS011;9532;54.322;10.116;2022-10-16T09:13:11;24.37;;;14.17;;
18808;SDS011;9532;54.322;10.116;2022-10-16T09:15:47;24.10;;;14.27;;
18808;SDS011;9532;54.322;10.116;2022-10-16T09:18:20;23.53;;;13.60;;
18808;SDS011;9532;54.322;10.116;2022-10-16T09:20:56;24.50;;;14.40;;
18808;SDS011;9532;54.322;10.116;2022-10-16T09:23:28;25.97;;;14.67;;
18808;SDS011;9532;54.322;10.116;2022-10-16T09:25:57;25.53;;;14.70;;
18808;SDS011;9532;54.322;10.116;2022-10-16T09:28:25;23.07;;;14.17;;
18808;SDS011;9532;54.322;10.116;2022-10-16T09:30:54;25.80;;;13.73;;
18808;SDS011;9532;54.322;10.116;2022-10-16T09:33:22;22.93;;;13.33;;
18808;SDS011;9532;54.322;10.116;2022-10-16T09:35:52;22.20;;;13.00;;
18808;SDS011;9532;54.322;10.116;2022-10-16T09:38:21;20.80;;;12.47;;
18808;SDS011;9532;54.322;10.116;2022-10-16T09:40:53;22.17;;;13.17;;
18808;SDS011;9532;54.322;10.116;2022-10-16T09:43:23;22.07;;;12.53;;
18808;SDS011;9532;54.322;10.116;2022-10-16T09:45:58;23.27;;;12.90;;
18808;SDS011;9532;54.322;10.116;2022-10-16T09:48:30;20.13;;;11.50;;
18808;SDS011;9532;54.322;10.116;2022-10-16T09:51:02;20.63;;;11.97;;
18808;SDS011;9532;54.322;10.116;2022-10-16T09:53:38;20.47;;;13.03;;
18808;SDS011;9532;54.322;10.116;2022-10-16T09:56:06;18.80;;;11.17;;
18808;SDS011;9532;54.322;10.116;2022-10-16T09:58:41;18.10;;;11.53;;
18808;SDS011;9532;54.322;10.116;2022-10-16T10:01:11;19.70;;;11.67;;
18808;SDS011;9532;54.322;10.116;2022-10-16T10:03:41;20.30;;;11.57;;
18808;SDS011;9532;54.322;10.116;2022-10-16T10:06:18;19.53;;;11.83;;
18808;SDS011;9532;54.322;10.116;2022-10-16T10:08:52;20.10;;;11.80;;
18808;SDS011;9532;54.322;10.116;2022-10-16T10:11:37;16.43;;;10.30;;
18808;SDS011;9532;54.322;10.116;2022-10-16T10:14:06;19.17;;;11.00;;
18808;SDS011;9532;54.322;10.116;2022-10-16T10:16:44;17.23;;;10.37;;
18808;SDS011;9532;54.322;10.116;2022-10-16T10:19:13;16.87;;;10.53;;
18808;SDS011;9532;54.322;10.116;2022-10-16T10:21:41;16.80;;;10.17;;
18808;SDS011;9532;54.322;10.116;2022-10-16T10:24:10;18.17;;;10.90;;
18808;SDS011;9532;54.322;10.116;2022-10-16T10:26:38;17.93;;;10.90;;
18808;SDS011;9532;54.322;10.116;2022-10-16T10:29:10;18.87;;;10.90;;
18808;SDS011;9532;54.322;10.116;2022-10-16T10:31:44;17.13;;;10.13;;
18808;SDS011;9532;54.322;10.116;2022-10-16T10:34:32;15.93;;;10.03;;
18808;SDS011;9532;54.322;10.116;2022-10-16T10:37:22;15.63;;;9.30;;
18808;SDS011;9532;54.322;10.116;2022-10-16T10:40:01;15.37;;;8.80;;
18808;SDS011;9532;54.322;10.116;2022-10-16T10:42:35;15.50;;;9.63;;
18808;SDS011;9532;54.322;10.116;2022-10-16T10:45:16;15.70;;;9.10;;
18808;SDS011;9532;54.322;10.116;2022-10-16T10:47:56;15.57;;;8.57;;
18808;SDS011;9532;54.322;10.116;2022-10-16T10:50:43;14.90;;;8.77;;
18808;SDS011;9532;54.322;10.116;2022-10-16T10:53:23;15.23;;;8.73;;
18808;SDS011;9532;54.322;10.116;2022-10-16T10:55:59;14.53;;;8.20;;
18808;SDS011;9532;54.322;10.116;2022-10-16T10:58:39;15.67;;;8.73;;
18808;SDS011;9532;54.322;10.116;2022-10-16T11:01:22;12.30;;;7.80;;
18808;SDS011;9532;54.322;10.116;2022-10-16T11:04:03;14.30;;;8.03;;
18808;SDS011;9532;54.322;10.116;2022-10-16T11:07:00;13.70;;;7.90;;
18808;SDS011;9532;54.322;10.116;2022-10-16T11:09:30;14.20;;;7.93;;
18808;SDS011;9532;54.322;10.116;2022-10-16T11:12:04;12.83;;;7.63;;
18808;SDS011;9532;54.322;10.116;2022-10-16T11:14:37;11.87;;;7.47;;
18808;SDS011;9532;54.322;10.116;2022-10-16T11:17:10;13.57;;;7.97;;
18808;SDS011;9532;54.322;10.116;2022-10-16T11:19:43;13.10;;;7.40;;
18808;SDS011;9532;54.322;10.116;2022-10-16T11:22:14;12.67;;;7.13;;
18808;SDS011;9532;54.322;10.116;2022-10-16T11:24:47;12.77;;;7.43;;
18808;SDS011;9532;54.322;10.116;2022-10-16T11:27:19;12.53;;;6.87;;
18808;SDS011;9532;54.322;10.116;2022-10-16T11:29:53;12.80;;;7.07;;
18808;SDS011;9532;54.322;10.116;2022-10-16T11:32:25;11.50;;;6.60;;
18808;SDS011;9532;54.322;10.116;2022-10-16T11:35:02;12.90;;;7.07;;
18808;SDS011;9532;54.322;10.116;2022-10-16T11:37:36;11.37;;;6.63;;
18808;SDS011;9532;54.322;10.116;2022-10-16T11:40:14;10.57;;;6.00;;
18808;SDS011;9532;54.322;10.116;2022-10-16T11:42:46;12.17;;;6.97;;
18808;SDS011;9532;54.322;10.116;2022-10-16T11:45:23;10.67;;;6.23;;
18808;SDS011;9532;54.322;10.116;2022-10-16T11:47:58;10.63;;;6.23;;
18808;SDS011;9532;54.322;10.116;2022-10-16T11:50:33;11.27;;;6.40;;
18808;SDS011;9532;54.322;10.116;2022-10-16T11:53:04;9.60;;;5.63;;
18808;SDS011;9532;54.322;10.116;2022-10-16T11:55:40;10.70;;;6.43;;
18808;SDS011;9532;54.322;10.116;2022-10-16T11:58:12;10.27;;;5.73;;
18808;SDS011;9532;54.322;10.116;2022-10-16T12:00:46;10.53;;;5.97;;
18808;SDS011;9532;54.322;10.116;2022-10-16T12:03:21;10.40;;;5.93;;
18808;SDS011;9532;54.322;10.116;2022-10-16T12:05:58;11.60;;;6.50;;
18808;SDS011;9532;54.322;10.116;2022-10-16T12:08:38;10.70;;;6.03;;
18808;SDS011;9532;54.322;10.116;2022-10-16T12:11:07;10.53;;;6.03;;
18808;SDS011;9532;54.322;10.116;2022-10-16T12:13:36;9.47;;;5.47;;
18808;SDS011;9532;54.322;10.116;2022-10-16T12:18:48;10.30;;;6.00;;
18808;SDS011;9532;54.322;10.116;2022-10-16T12:21:17;9.17;;;5.50;;
18808;SDS011;9532;54.322;10.116;2022-10-16T12:23:56;10.27;;;5.63;;
18808;SDS011;9532;54.322;10.116;2022-10-16T12:26:27;9.37;;;5.37;;
18808;SDS011;9532;54.322;10.116;2022-10-16T12:28:55;12.60;;;5.03;;
18808;SDS011;9532;54.322;10.116;2022-10-16T12:31:36;8.83;;;5.40;;
18808;SDS011;9532;54.322;10.116;2022-10-16T12:34:14;8.53;;;5.20;;
18808;SDS011;9532;54.322;10.116;2022-10-16T12:36:50;9.33;;;5.47;;
18808;SDS011;9532;54.322;10.116;2022-10-16T12:39:20;7.70;;;5.00;;
18808;SDS011;9532;54.322;10.116;2022-10-16T12:41:59;8.17;;;4.80;;
18808;SDS011;9532;54.322;10.116;2022-10-16T12:44:31;9.27;;;5.10;;
18808;SDS011;9532;54.322;10.116;2022-10-16T12:46:59;9.80;;;5.23;;
18808;SDS011;9532;54.322;10.116;2022-10-16T12:49:30;8.93;;;5.43;;
18808;SDS011;9532;54.322;10.116;2022-10-16T12:52:03;7.23;;;4.50;;
18808;SDS011;9532;54.322;10.116;2022-10-16T12:54:31;7.63;;;4.80;;
18808;SDS011;9532;54.322;10.116;2022-10-16T12:57:06;8.17;;;4.80;;
18808;SDS011;9532;54.322;10.116;2022-10-16T12:59:50;8.47;;;4.50;;
18808;SDS011;9532;54.322;10.116;2022-10-16T13:05:32;8.57;;;5.03;;
18808;SDS011;9532;54.322;10.116;2022-10-16T13:08:20;8.73;;;5.10;;
18808;SDS011;9532;54.322;10.116;2022-10-16T13:11:00;6.93;;;4.27;;
18808;SDS011;9532;54.322;10.116;2022-10-16T13:13:37;6.43;;;4.23;;
18808;SDS011;9532;54.322;10.116;2022-10-16T13:16:17;8.47;;;5.00;;
18808;SDS011;9532;54.322;10.116;2022-10-16T13:18:55;8.20;;;4.93;;
18808;SDS011;9532;54.322;10.116;2022-10-16T13:21:35;7.63;;;4.63;;
18808;SDS011;9532;54.322;10.116;2022-10-16T13:24:15;8.73;;;4.27;;
18808;SDS011;9532;54.322;10.116;2022-10-16T13:26:52;7.70;;;4.37;;
18808;SDS011;9532;54.322;10.116;2022-10-16T13:29:29;6.40;;;4.40;;
18808;SDS011;9532;54.322;10.116;2022-10-16T13:31:57;9.13;;;4.63;;
18808;SDS011;9532;54.322;10.116;2022-10-16T13:34:25;8.17;;;4.50;;
18808;SDS011;9532;54.322;10.116;2022-10-16T13:36:53;7.63;;;4.10;;
18808;SDS011;9532;54.322;10.116;2022-10-16T13:39:23;6.00;;;4.10;;
18808;SDS011;9532;54.322;10.116;2022-10-16T13:42:02;8.13;;;4.53;;
18808;SDS011;9532;54.322;10.116;2022-10-16T13:44:34;7.70;;;4.17;;
18808;SDS011;9532;54.322;10.116;2022-10-16T13:47:05;8.53;;;4.53;;
18808;SDS011;9532;54.322;10.116;2022-10-16T13:49:41;7.50;;;4.40;;
18808;SDS011;9532;54.322;10.116;2022-10-16T13:52:15;6.93;;;4.03;;
18808;SDS011;9532;54.322;10.116;2022-10-16T13:54:45;7.27;;;3.77;;
18808;SDS011;9532;54.322;10.116;2022-10-16T13:57:13;7.30;;;4.30;;
18808;SDS011;9532;54.322;10.116;2022-10-16T13:59:41;6.33;;;4.10;;
18808;SDS011;9532;54.322;10.116;2022-10-16T14:02:19;8.07;;;4.07;;
18808;SDS011;9532;54.322;10.116;2022-10-16T14:04:51;6.20;;;3.97;;
18808;SDS011;9532;54.322;10.116;2022-10-16T14:07:22;7.73;;;4.10;;
18808;SDS011;9532;54.322;10.116;2022-10-16T14:09:53;6.13;;;3.70;;
18808;SDS011;9532;54.322;10.116;2022-10-16T14:12:21;6.17;;;3.80;;
18808;SDS011;9532;54.322;10.116;2022-10-16T14:14:50;6.30;;;3.63;;
18808;SDS011;9532;54.322;10.116;2022-10-16T14:17:20;6.07;;;3.57;;
18808;SDS011;9532;54.322;10.116;2022-10-16T14:19:50;7.03;;;3.83;;
18808;SDS011;9532;54.322;10.116;2022-10-16T14:22:22;6.60;;;3.47;;
18808;SDS011;9532;54.322;10.116;2022-10-16T14:24:58;6.03;;;3.77;;
18808;SDS011;9532;54.322;10.116;2022-10-16T14:27:27;6.00;;;3.83;;
18808;SDS011;9532;54.322;10.116;2022-10-16T14:30:12;6.63;;;3.57;;
18808;SDS011;9532;54.322;10.116;2022-10-16T14:32:51;7.23;;;3.80;;
18808;SDS011;9532;54.322;10.116;2022-10-16T14:35:24;7.20;;;3.63;;
18808;SDS011;9532;54.322;10.116;2022-10-16T14:37:53;6.30;;;3.77;;
18808;SDS011;9532;54.322;10.116;2022-10-16T14:40:23;6.40;;;3.73;;
18808;SDS011;9532;54.322;10.116;2022-10-16T14:42:51;7.20;;;3.57;;
18808;SDS011;9532;54.322;10.116;2022-10-16T14:45:19;5.60;;;3.10;;
18808;SDS011;9532;54.322;10.116;2022-10-16T14:47:49;5.27;;;3.53;;
18808;SDS011;9532;54.322;10.116;2022-10-16T14:50:18;4.73;;;3.07;;
18808;SDS011;9532;54.322;10.116;2022-10-16T14:52:46;5.37;;;3.47;;
18808;SDS011;9532;54.322;10.116;2022-10-16T14:55:12;5.73;;;3.70;;
18808;SDS011;9532;54.322;10.116;2022-10-16T14:57:42;5.00;;;3.10;;
18808;SDS011;9532;54.322;10.116;2022-10-16T15:00:13;5.57;;;3.27;;
18808;SDS011;9532;54.322;10.116;2022-10-16T15:02:43;5.30;;;3.27;;
18808;SDS011;9532;54.322;10.116;2022-10-16T15:05:12;6.20;;;3.53;;
18808;SDS011;9532;54.322;10.116;2022-10-16T15:07:42;5.07;;;3.10;;
18808;SDS011;9532;54.322;10.116;2022-10-16T15:10:10;6.13;;;3.37;;